Latest Weather Observations for Friendly Beaches

IDT60801

Issued at 10:05 pm EDT Thursday 23 October 2014 (issued every 30 minutes, with the page automatically refreshed every 10 minutes)

About weather observations | Map of weather stations | Latest weather observations for TAS | Other Formats
Station Details ID: 092114 Name: FRIENDLY BEACHES Lat: -42.00 Lon: 148.28 Height: 55.0 m
Data from the previous 72 hours. | See also: Recent months at Friendly Beaches
Date/Time
EDT
Temp
°C
App
Temp
°C
Dew
Point
Rel
Hum
%
Delta-T
°C
Wind Press
QNH
hPa
Press
MSL
hPa
Rain
since 9 am
mm
Dir
 
Spd
km/h
Gust
km/h
Spd
kts
Gust
kts
23/10:00pm 11.0 7.4 4.9 66 2.8 ENE 13 19 7 10 1026.5 1026.5 0.0
23/09:30pm 11.1 8.0 5.4 68 2.6 E 11 17 6 9 1026.7 1026.7 0.0
23/09:00pm 11.1 7.3 5.6 69 2.5 ESE 15 19 8 10 1026.5 1026.5 0.0
23/08:30pm 11.0 7.5 5.5 69 2.5 ESE 13 19 7 10 1026.3 1026.3 0.0
23/08:00pm 11.0 7.5 5.5 69 2.5 ESE 13 19 7 10 1026.0 1026.0 0.0
23/07:30pm 11.2 7.7 5.3 67 2.7 ESE 13 19 7 10 1025.8 1025.8 0.0
23/07:00pm 12.1 8.6 5.3 63 3.1 E 13 17 7 9 1025.6 1025.6 0.0
23/06:30pm 13.9 10.1 5.8 58 3.8 ESE 15 20 8 11 1025.5 1025.5 0.0
23/06:00pm 14.7 11.7 6.0 56 4.2 SE 11 17 6 9 1025.4 1025.4 0.0
23/05:30pm 15.4 11.9 5.6 52 4.7 SE 13 17 7 9 1025.5 1025.5 0.0
23/05:00pm 16.3 12.1 5.6 49 5.1 SE 17 22 9 12 1025.4 1025.4 0.0
23/04:30pm 16.9 12.8 6.1 49 5.3 SE 17 22 9 12 1025.3 1025.3 0.0
23/04:00pm 17.3 13.2 6.2 48 5.4 SE 17 22 9 12 1025.4 1025.4 0.0
23/03:30pm 16.9 13.4 5.5 47 5.5 SSE 13 19 7 10 1025.5 1025.5 0.0
23/03:00pm 17.9 13.4 6.1 46 5.8 SE 19 26 10 14 1025.5 1025.5 0.0
23/02:30pm 17.1 12.3 5.7 47 5.5 SE 20 26 11 14 1025.6 1025.6 0.0
23/02:00pm 17.6 12.5 6.2 47 5.6 SE 22 30 12 16 1025.5 1025.5 0.0
23/01:30pm 17.4 12.4 6.6 49 5.4 SE 22 30 12 16 1025.4 1025.4 0.0
23/01:00pm 17.5 12.2 6.7 49 5.3 SE 24 33 13 18 1025.2 1025.2 0.0
23/12:30pm 17.1 11.0 6.6 50 5.2 SE 28 35 15 19 1025.1 1025.1 0.0
23/12:00pm 16.9 10.7 6.1 49 5.2 SE 28 35 15 19 1025.2 1025.2 0.0
23/11:30am 16.5 10.6 5.8 49 5.2 SE 26 33 14 18 1025.4 1025.4 0.0
23/11:00am 16.6 11.1 5.9 49 5.2 SE 24 32 13 17 1025.6 1025.6 0.0
23/10:30am 16.2 10.8 6.3 52 4.8 SSE 24 32 13 17 1025.6 1025.6 0.0
23/10:00am 15.7 10.5 5.6 51 4.8 SSE 22 32 12 17 1025.7 1025.7 0.0
23/09:30am 13.4 9.1 5.1 57 3.9 S 17 28 9 15 1025.5 1025.5 0.0
23/09:00am 14.1 9.9 5.5 56 4.0 S 17 26 9 14 1025.1 1025.1 0.0
23/08:30am 13.9 9.8 6.3 60 3.6 SSE 17 30 9 16 1024.9 1024.9 0.0
23/08:00am 12.0 7.8 5.6 65 3.0 S 17 26 9 14 1024.5 1024.5 0.0
23/07:30am 11.8 7.9 5.4 65 3.0 S 15 22 8 12 1024.1 1024.1 0.0
23/07:00am 11.0 8.3 5.7 70 2.4 S 9 17 5 9 1023.6 1023.6 0.0
23/06:30am 10.6 6.7 5.4 70 2.4 S 15 24 8 13 1023.1 1023.1 0.0
23/06:00am 11.3 7.7 6.6 73 2.2 S 15 28 8 15 1022.7 1022.7 0.0
23/05:30am 11.4 7.1 6.9 74 2.1 S 19 30 10 16 1022.3 1022.3 0.0
23/05:00am 11.5 8.4 7.4 76 2.0 S 13 26 7 14 1021.8 1021.8 0.0
23/04:30am 11.8 7.9 8.5 80 1.6 S 19 30 10 16 1021.2 1021.2 0.0
23/04:00am 12.1 8.4 9.3 83 1.4 S 19 37 10 20 1020.8 1020.8 0.0
23/03:30am 12.5 8.9 10.0 85 1.3 S 19 28 10 15 1020.3 1020.3 0.0
23/03:00am 13.1 9.4 10.3 83 1.4 S 20 32 11 17 1020.2 1020.2 0.0
23/02:30am 13.3 9.6 10.3 82 1.6 S 20 37 11 20 1019.8 1019.9 0.0
23/02:00am 13.3 9.8 10.3 82 1.6 S 19 37 10 20 1020.0 1020.0 0.0
23/01:30am 13.4 10.0 10.6 83 1.5 S 19 32 10 17 1019.8 1019.9 0.0
23/01:00am 13.5 11.7 11.0 85 1.3 S 11 30 6 16 1019.6 1019.7 0.0
23/12:30am 13.6 11.9 11.3 86 1.2 S 11 24 6 13 1019.1 1019.1 0.0
23/12:00am 13.6 12.8 11.1 85 1.3 WSW 6 15 3 8 1018.8 1018.8 0.0
 
Date/Time
EDT
Temp
°C
App
Temp
°C
Dew
Point
Rel
Hum
%
Delta-T
°C
Wind Press
QNH
hPa
Press
MSL
hPa
Rain
since 9 am
mm
Dir
 
Spd
km/h
Gust
km/h
Spd
kts
Gust
kts
22/11:30pm 13.4 11.6 10.9 85 1.3 SSW 11 26 6 14 1018.5 1018.5 0.0
22/11:00pm 13.4 11.6 10.8 84 1.4 S 11 22 6 12 1018.0 1018.0 0.0
22/10:30pm 14.0 11.4 10.8 81 1.7 SSW 15 22 8 12 1017.7 1017.7 0.0
22/10:00pm 14.6 11.5 11.6 82 1.6 S 19 30 10 16 1016.9 1016.9 0.0
22/09:30pm 15.4 10.2 11.6 78 2.1 SSW 30 46 16 25 1015.6 1015.6 0.0
22/09:23pm 16.4 11.5 11.3 72 2.8 SSW 28 46 15 25 1015.4 1015.4 0.0
22/09:00pm 14.4 13.9 12.1 86 1.2 SW 6 20 3 11 1015.0 1015.0 0.0
22/08:30pm 14.5 13.9 12.2 86 1.3 SSE 7 11 4 6 1014.0 1014.0 0.0
22/08:00pm 14.7 14.2 12.2 85 1.4 S 6 11 3 6 1013.6 1013.6 0.0
22/07:30pm 14.7 14.1 12.2 85 1.4 SSE 7 11 4 6 1013.2 1013.2 0.0
22/07:00pm 15.1 14.4 12.1 82 1.6 S 7 11 4 6 1013.3 1013.3 0.0
22/06:30pm 15.6 14.9 12.0 79 2.0 S 7 11 4 6 1013.7 1013.7 0.0
22/06:00pm 17.4 17.6 11.9 70 3.0 SSW 2 11 1 6 1013.8 1013.8 0.0
22/05:30pm 19.3 19.2 12.1 63 4.0 NE 4 6 2 3 1013.8 1013.8 0.0
22/05:00pm 20.4 19.0 12.1 59 4.6 NE 11 17 6 9 1013.6 1013.6 0.0
22/04:30pm 21.8 20.1 12.6 56 5.2 NNE 13 20 7 11 1013.7 1013.7 0.0
22/04:00pm 21.2 19.3 12.9 59 4.7 NNE 15 30 8 16 1013.5 1013.5 0.0
22/03:30pm 20.7 17.7 12.4 59 4.7 NNE 20 32 11 17 1013.6 1013.6 0.0
22/03:00pm 18.8 17.0 12.1 65 3.7 NE 13 22 7 12 1014.1 1014.1 0.0
22/02:30pm 19.7 15.5 12.5 63 4.0 NNE 26 41 14 22 1014.2 1014.2 0.0
22/02:00pm 22.4 18.2 12.4 53 5.7 NNE 26 41 14 22 1015.1 1015.1 0.0
22/01:30pm 21.6 17.4 12.5 56 5.2 NNE 26 37 14 20 1015.7 1015.7 0.0
22/01:00pm 21.4 16.9 12.5 57 5.0 NNE 28 44 15 24 1016.2 1016.2 0.0
22/12:30pm 20.7 16.0 11.9 57 4.9 NNE 28 43 15 23 1017.0 1017.0 0.0
22/12:00pm 20.6 15.8 11.8 57 4.9 NNE 28 44 15 24 1017.8 1017.8 0.0
22/11:30am 20.5 16.9 12.0 58 4.8 NNE 22 33 12 18 1018.5 1018.5 0.0
22/11:00am 20.1 16.0 11.3 57 4.8 NNE 24 39 13 21 1019.1 1019.1 0.0
22/10:30am 19.5 15.1 10.5 56 4.9 NNE 24 41 13 22 1019.1 1019.1 0.0
22/10:00am 19.4 16.6 10.1 55 5.0 N 15 24 8 13 1020.0 1020.0 0.0
22/09:30am 18.2 14.5 9.3 56 4.7 N 19 28 10 15 1020.1 1020.1 0.0
22/09:00am 16.9 13.0 8.8 59 4.2 N 19 37 10 20 1020.6 1020.6 0.0
22/08:30am 16.0 11.9 8.5 61 3.8 N 20 37 11 20 1021.0 1021.0 0.0
22/08:00am 14.8 10.6 8.1 64 3.3 N 20 39 11 21 1021.2 1021.2 0.0
22/07:30am 13.7 10.0 7.9 68 2.9 N 17 28 9 15 1021.6 1021.6 0.0
22/07:00am 12.8 9.4 7.5 70 2.6 N 15 32 8 17 1022.0 1022.0 0.0
22/06:30am 11.6 9.2 6.9 73 2.2 N 9 19 5 10 1022.4 1022.4 0.0
22/06:00am 11.6 9.5 6.5 71 2.4 N 7 22 4 12 1022.8 1022.8 0.0
22/05:30am 11.8 9.3 6.5 70 2.5 N 9 17 5 9 1022.9 1022.9 0.0
22/05:00am 12.0 9.1 6.5 69 2.6 N 11 19 6 10 1023.2 1023.2 0.0
22/04:30am 12.2 8.5 6.3 67 2.8 N 15 28 8 15 1023.6 1023.6 0.0
22/04:00am 12.2 8.9 6.5 68 2.7 N 13 24 7 13 1024.1 1024.1 0.0
22/03:30am 12.1 9.5 6.2 67 2.8 N 9 17 5 9 1024.6 1024.6 0.0
22/03:00am 12.4 9.9 6.5 67 2.8 N 9 24 5 13 1025.1 1025.1 0.0
22/02:30am 12.1 9.9 6.4 68 2.7 N 7 15 4 8 1025.6 1025.6 0.0
22/02:00am 12.2 9.3 6.5 68 2.7 N 11 24 6 13 1025.8 1025.8 0.0
22/01:30am 11.6 9.0 6.1 69 2.6 N 9 17 5 9 1026.3 1026.3 0.0
22/01:00am 11.7 8.4 6.2 69 2.6 N 13 20 7 11 1026.8 1026.8 0.0
22/12:30am 11.8 8.1 6.3 69 2.6 N 15 30 8 16 1027.1 1027.1 0.0
22/12:00am 11.9 7.5 6.4 69 2.6 N 19 33 10 18 1027.5 1027.5 0.0
 
Date/Time
EDT
Temp
°C
App
Temp
°C
Dew
Point
Rel
Hum
%
Delta-T
°C
Wind Press
QNH
hPa
Press
MSL
hPa
Rain
since 9 am
mm
Dir
 
Spd
km/h
Gust
km/h
Spd
kts
Gust
kts
21/11:30pm 12.0 7.0 6.3 68 2.7 N 22 41 12 22 1027.6 1027.6 0.0
21/11:00pm 11.9 7.2 6.2 68 2.7 N 20 35 11 19 1027.6 1027.6 0.0
21/10:30pm 12.0 6.9 6.1 67 2.8 N 22 39 12 21 1028.1 1028.1 0.0
21/10:00pm 12.1 7.0 6.2 67 2.8 N 22 37 12 20 1028.2 1028.2 0.0
21/09:30pm 12.4 6.6 6.2 66 2.9 N 26 43 14 23 1028.4 1028.4 0.0
21/09:00pm 12.5 6.8 6.5 67 2.8 N 26 43 14 23 1028.4 1028.4 0.0
21/08:30pm 12.6 6.9 6.9 68 2.7 N 26 41 14 22 1028.5 1028.5 0.0
21/08:00pm 12.8 7.1 6.8 67 2.9 N 26 41 14 22 1028.5 1028.5 0.0
21/07:30pm 12.9 7.4 7.4 69 2.7 N 26 43 14 23 1028.4 1028.4 0.0
21/07:00pm 13.2 6.9 7.4 68 2.8 N 30 44 16 24 1028.4 1028.4 0.0
21/06:30pm 13.8 7.5 7.3 65 3.2 NNE 30 46 16 25 1028.3 1028.3 0.0
21/06:00pm 14.5 8.6 7.3 62 3.5 NNE 28 48 15 26 1028.6 1028.6 0.0
21/05:32pm 15.2 8.2 6.7 57 4.2 NNE 33 57 18 31 1028.9 1028.9 0.0
21/05:30pm 15.5 8.7 7.5 59 4.0 NNE 33 50 18 27 1028.9 1028.9 0.0
21/05:09pm 15.7 9.0 7.2 57 4.2 NNE 32 50 17 27 1029.0 1029.0 0.0
21/05:00pm 15.8 9.0 7.1 56 4.3 NNE 32 48 17 26 1029.0 1029.0 0.0
21/04:41pm 16.5 10.2 7.2 54 4.6 NNE 30 48 16 26 1029.2 1029.2 0.0
21/04:30pm 16.4 9.7 7.3 55 4.5 NNE 32 46 17 25 1029.4 1029.4 0.0
21/04:00pm 16.8 10.6 8.0 56 4.4 NNE 30 46 16 25 1029.8 1029.8 0.0
21/03:30pm 16.8 10.3 8.0 56 4.5 NNE 32 46 17 25 1030.3 1030.3 0.0
21/03:00pm 17.7 11.5 7.7 52 5.0 NE 30 43 16 23 1030.8 1030.8 0.0
21/02:30pm 17.4 10.9 6.3 48 5.5 NNE 30 44 16 24 1031.2 1031.2 0.0
21/02:00pm 17.3 11.3 7.1 51 5.1 NNE 28 44 15 24 1031.7 1031.7 0.0
21/01:30pm 17.1 10.6 6.6 50 5.2 NNE 30 44 16 24 1032.0 1032.0 0.0
21/01:00pm 17.6 11.5 6.8 49 5.3 NNE 28 41 15 22 1032.3 1032.3 0.0
21/12:30pm 17.4 11.2 6.0 47 5.6 NE 28 43 15 23 1032.6 1032.6 0.0
21/12:00pm 17.3 12.7 6.5 49 5.3 NE 20 33 11 18 1033.1 1033.1 0.0
21/11:30am 16.9 11.8 6.1 49 5.3 NE 22 32 12 17 1033.4 1033.4 0.0
21/11:00am 17.0 12.5 5.9 48 5.4 NE 19 32 10 17 1033.8 1033.8 0.0
21/10:30am 16.1 11.9 5.7 50 5.0 NNE 17 28 9 15 1034.2 1034.2 0.0
21/10:00am 14.3 11.7 5.9 57 4.0 NE 9 17 5 9 1034.3 1034.4 0.0
21/09:30am 12.4 10.6 5.6 63 3.2 ENE 4 7 2 4 1034.6 1034.7 0.0
21/09:00am 10.7 8.9 5.5 70 2.4 WNW 4 6 2 3 1034.5 1034.6 0.0
21/08:30am 9.6 7.4 5.4 75 1.9 WNW 6 9 3 5 1034.5 1034.6 0.0
21/08:00am 8.7 6.3 5.1 78 1.6 WNW 7 9 4 5 1034.4 1034.5 0.0
21/07:30am 8.3 5.8 4.7 78 1.6 WNW 7 9 4 5 1034.2 1034.2 0.0
21/07:00am 7.7 5.2 4.5 80 1.4 WNW 7 9 4 5 1033.9 1033.9 0.0
21/06:30am 7.0 4.1 4.5 84 1.1 WNW 9 11 5 6 1033.8 1033.8 0.0
21/06:00am 6.2 2.8 3.9 85 1.0 WNW 11 13 6 7 1033.5 1033.5 0.0
21/05:30am 5.7 2.3 3.9 88 0.8 WNW 11 15 6 8 1033.3 1033.3 0.0
21/05:00am 6.7 4.2 3.5 80 1.3 WNW 6 7 3 4 1032.9 1032.9 0.0
21/04:30am 6.6 3.8 3.4 80 1.4 W 7 9 4 5 1033.0 1033.0 0.0
21/04:00am 4.9 1.7 2.9 87 0.8 WNW 9 9 5 5 1033.2 1033.2 0.0
21/03:30am 4.5 1.3 3.2 91 0.5 WNW 9 11 5 6 1033.3 1033.3 0.0
21/03:00am 4.6 1.4 2.9 89 0.7 WNW 9 11 5 6 1033.6 1033.6 0.0
21/02:30am 4.0 1.3 2.8 92 0.5 WNW 6 9 3 5 1033.6 1033.6 0.0
21/02:00am 4.4 1.6 3.1 91 0.5 WNW 7 9 4 5 1033.9 1033.9 0.0
21/01:30am 4.8 2.0 3.1 89 0.7 WNW 7 7 4 4 1034.1 1034.1 0.0
21/01:00am 5.2 2.6 3.4 88 0.7 WNW 6 7 3 4 1034.5 1034.6 0.0
21/12:30am 5.5 2.9 3.0 84 1.0 NW 6 6 3 3 1034.8 1034.9 0.0
21/12:00am 5.9 3.1 3.4 84 1.0 WNW 7 9 4 5 1035.3 1035.4 0.0
 
Date/Time
EDT
Temp
°C
App
Temp
°C
Dew
Point
Rel
Hum
%
Delta-T
°C
Wind Press
QNH
hPa
Press
MSL
hPa
Rain
since 9 am
mm
Dir
 
Spd
km/h
Gust
km/h
Spd
kts
Gust
kts
20/11:30pm 6.3 3.7 3.3 81 1.3 WNW 6 6 3 3 1035.3 1035.4 0.0
20/11:00pm 6.7 3.9 2.2 73 1.8 W 6 7 3 4 1035.5 1035.6 0.0
20/10:30pm 7.4 5.8 2.5 71 2.0 CALM 0 0 0 0 1035.6 1035.7 0.0

Other Formats:

Comma delimited format used in spreadsheet applications
http://www.bom.gov.au/fwo/IDT60801/IDT60801.94987.axf

JavaScript Object Notation format (JSON) in row-major order
http://www.bom.gov.au/fwo/IDT60801/IDT60801.94987.json